Time;durP1;ratioP1;P1;durP2;ratioP2;P2;SDS_P1;SDS_P2;PMS_P1;PMS_P2;Temp;Humidity;BMP_temperature;BMP_pressure;BME280_temperature;BME280_humidity;BME280_pressure;Samples;Min_cycle;Max_cycle;Signal;HPM_P1;HPM_P2
2022/09/18 00:01:30;;;;;;;5.83;1.23;;;11.00;99.90;;;;;;4996289;28;20245;-49
2022/09/18 00:03:59;;;;;;;9.97;1.70;;;10.90;99.90;;;;;;4996589;28;20233;-51
2022/09/18 00:06:29;;;;;;;6.40;1.40;;;10.90;99.90;;;;;;4996132;28;20222;-49
2022/09/18 00:09:00;;;;;;;5.73;1.30;;;10.80;99.90;;;;;;4999005;28;20277;-49
2022/09/18 00:11:33;;;;;;;7.43;1.60;;;10.80;99.90;;;;;;5002967;28;20226;-49
2022/09/18 00:14:02;;;;;;;9.43;1.63;;;10.70;99.90;;;;;;5004211;28;20241;-48
2022/09/18 00:16:30;;;;;;;7.20;1.53;;;10.70;99.90;;;;;;4996221;28;20634;-46
2022/09/18 00:18:59;;;;;;;6.17;1.20;;;10.60;99.90;;;;;;4996642;28;20683;-49
2022/09/18 00:21:28;;;;;;;6.67;1.70;;;10.60;99.90;;;;;;5012347;28;20269;-48
2022/09/18 00:23:59;;;;;;;9.10;1.70;;;10.60;99.90;;;;;;5006058;28;20238;-49
2022/09/18 00:26:27;;;;;;;9.30;2.03;;;10.60;99.90;;;;;;4995474;28;20262;-50
2022/09/18 00:28:57;;;;;;;6.33;1.43;;;10.60;99.90;;;;;;4996007;28;20220;-47
2022/09/18 00:31:29;;;;;;;7.50;1.70;;;10.50;99.90;;;;;;4994659;28;20251;-49
2022/09/18 00:33:58;;;;;;;6.97;1.37;;;10.40;99.90;;;;;;4996141;28;20769;-48
2022/09/18 00:36:26;;;;;;;7.13;1.73;;;10.40;99.90;;;;;;4995850;28;20216;-50
2022/09/18 00:38:56;;;;;;;6.07;1.30;;;10.30;99.90;;;;;;4995792;28;20264;-49
2022/09/18 00:41:27;;;;;;;10.50;1.53;;;10.30;99.90;;;;;;5005292;28;20227;-49
2022/09/18 00:44:16;;;;;;;7.67;1.43;;;10.40;99.90;;;;;;5003763;28;20229;-51
2022/09/18 00:46:46;;;;;;;7.13;1.30;;;10.40;99.90;;;;;;4995302;28;20329;-49
2022/09/18 00:49:18;;;;;;;7.93;1.47;;;10.50;99.90;;;;;;4995577;28;20230;-48
2022/09/18 00:51:50;;;;;;;8.23;1.33;;;10.50;99.90;;;;;;5012970;28;20262;-48
2022/09/18 00:54:22;;;;;;;6.50;1.67;;;10.60;99.90;;;;;;5002279;28;20232;-50
2022/09/18 00:56:54;;;;;;;9.33;1.53;;;10.60;99.90;;;;;;4995575;28;20232;-49
2022/09/18 00:59:26;;;;;;;8.27;1.70;;;10.60;99.90;;;;;;4995561;28;20696;-49
2022/09/18 01:01:57;;;;;;;7.70;1.47;;;10.60;99.90;;;;;;4995334;28;20240;-49
2022/09/18 01:04:27;;;;;;;7.13;1.83;;;10.60;99.90;;;;;;4996848;28;20230;-50
2022/09/18 01:07:03;;;;;;;6.40;1.50;;;10.60;99.90;;;;;;4995701;28;20236;-50
2022/09/18 01:09:40;;;;;;;6.47;1.77;;;10.60;99.90;;;;;;4993848;28;20243;-49
2022/09/18 01:12:21;;;;;;;9.00;1.50;;;10.50;99.90;;;;;;5003270;28;20229;-51
2022/09/18 01:14:56;;;;;;;6.63;1.50;;;10.50;99.90;;;;;;5003664;28;20233;-48
2022/09/18 01:17:34;;;;;;;9.27;1.77;;;10.40;99.90;;;;;;4993833;28;20226;-48
2022/09/18 01:20:40;;;;;;;9.53;2.40;;;10.40;99.90;;;;;;4997259;28;20221;-48
2022/09/18 01:23:19;;;;;;;4.47;1.40;;;10.30;99.90;;;;;;4999970;28;20227;-47
2022/09/18 01:25:59;;;;;;;7.07;1.70;;;10.30;99.90;;;;;;4994678;28;20226;-48
2022/09/18 01:28:36;;;;;;;7.60;1.63;;;10.40;99.90;;;;;;4993518;28;20251;-48
2022/09/18 01:31:11;;;;;;;6.77;1.20;;;10.30;99.90;;;;;;4994932;28;20238;-50
2022/09/18 01:33:46;;;;;;;10.37;1.80;;;10.40;99.90;;;;;;5007482;28;20263;-47
2022/09/18 01:36:16;;;;;;;9.43;1.70;;;10.40;99.90;;;;;;5009986;28;20597;-48
2022/09/18 01:38:49;;;;;;;5.70;1.77;;;10.40;99.90;;;;;;5012837;28;20854;-47
2022/09/18 01:41:22;;;;;;;8.50;1.90;;;10.40;99.90;;;;;;4996475;28;20229;-48
2022/09/18 01:43:55;;;;;;;8.37;1.57;;;10.40;99.90;;;;;;5002738;28;20231;-49
2022/09/18 01:46:24;;;;;;;9.17;1.90;;;10.40;99.90;;;;;;4993618;28;20733;-49
2022/09/18 01:48:57;;;;;;;6.67;1.57;;;10.30;99.90;;;;;;4993283;28;20236;-48
2022/09/18 01:51:32;;;;;;;9.83;1.57;;;10.30;99.90;;;;;;5007781;28;20291;-48
2022/09/18 01:54:04;;;;;;;9.53;1.60;;;10.30;99.90;;;;;;5002115;28;20266;-48
2022/09/18 01:56:36;;;;;;;10.20;1.80;;;10.30;99.90;;;;;;4994206;28;20238;-48
2022/09/18 01:59:12;;;;;;;9.90;1.70;;;10.30;99.90;;;;;;4993453;28;20235;-48
2022/09/18 02:01:53;;;;;;;7.07;1.77;;;10.30;99.90;;;;;;4992890;28;20238;-48
2022/09/18 02:04:26;;;;;;;8.77;2.00;;;10.40;99.90;;;;;;4995318;28;20274;-49
2022/09/18 02:07:00;;;;;;;6.30;1.20;;;10.40;99.90;;;;;;4993304;28;20221;-49
2022/09/18 02:09:29;;;;;;;9.00;1.53;;;10.40;99.90;;;;;;4994389;28;20724;-49
2022/09/18 02:12:01;;;;;;;8.40;1.60;;;10.40;99.90;;;;;;4999471;28;20605;-49
2022/09/18 02:14:38;;;;;;;9.53;2.03;;;10.40;99.90;;;;;;5000829;28;20286;-48
2022/09/18 02:17:46;;;;;;;5.37;1.30;;;10.40;99.90;;;;;;4988515;28;20339;-49
2022/09/18 02:20:20;;;;;;;10.13;2.00;;;10.40;99.90;;;;;;4993148;28;20308;-48
2022/09/18 02:22:51;;;;;;;6.50;1.27;;;10.40;99.90;;;;;;5011564;28;20238;-48
2022/09/18 02:25:24;;;;;;;8.13;1.47;;;10.30;99.90;;;;;;4992756;28;20586;-48
2022/09/18 02:27:54;;;;;;;8.73;1.33;;;10.20;99.90;;;;;;4993816;28;20249;-48
2022/09/18 02:30:25;;;;;;;4.57;1.07;;;10.10;99.90;;;;;;4992631;28;20325;-48
2022/09/18 02:32:54;;;;;;;6.80;1.40;;;10.10;99.90;;;;;;4994152;28;20254;-49
2022/09/18 02:35:29;;;;;;;4.90;1.30;;;10.10;99.90;;;;;;4992493;28;20661;-50
2022/09/18 02:38:02;;;;;;;10.23;1.83;;;10.10;99.90;;;;;;4993777;28;20674;-48
2022/09/18 02:40:43;;;;;;;3.63;1.00;;;10.10;99.90;;;;;;4998013;28;20292;-48
2022/09/18 02:43:27;;;;;;;5.33;1.10;;;10.10;99.90;;;;;;4992887;28;20276;-50
2022/09/18 02:46:07;;;;;;;5.53;1.10;;;10.10;99.90;;;;;;4994364;28;20321;-48
2022/09/18 02:48:47;;;;;;;3.70;0.90;;;10.20;99.90;;;;;;4992477;28;20231;-48
2022/09/18 02:51:27;;;;;;;4.47;1.30;;;10.20;99.90;;;;;;5010695;28;20254;-48
2022/09/18 02:54:00;;;;;;;5.27;0.93;;;10.20;99.90;;;;;;5002406;28;20699;-50
2022/09/18 02:56:37;;;;;;;6.30;1.23;;;10.10;99.90;;;;;;4992077;28;20638;-47
2022/09/18 02:59:09;;;;;;;6.37;1.13;;;10.10;99.90;;;;;;4993618;28;20232;-48
2022/09/18 03:01:42;;;;;;;4.80;1.00;;;10.10;99.90;;;;;;4972251;28;20262;-48
2022/09/18 03:04:13;;;;;;;4.53;1.13;;;10.00;99.90;;;;;;4972908;28;20695;-48
2022/09/18 03:07:13;;;;;;;7.30;1.53;;;10.00;99.90;;;;;;4988530;28;20233;-47
2022/09/18 03:09:43;;;;;;;6.23;1.00;;;10.00;99.90;;;;;;5003416;28;20368;-49
2022/09/18 03:12:12;;;;;;;8.90;1.40;;;10.00;99.90;;;;;;5004038;28;20229;-49
2022/09/18 03:14:45;;;;;;;5.87;1.10;;;10.00;99.90;;;;;;5002697;28;20260;-47
2022/09/18 03:17:15;;;;;;;7.40;1.63;;;10.00;99.90;;;;;;4997432;28;20222;-48
2022/09/18 03:19:45;;;;;;;7.13;1.37;;;10.00;99.90;;;;;;5003286;28;20229;-52
2022/09/18 03:22:13;;;;;;;11.10;1.47;;;10.00;99.90;;;;;;5015571;28;20225;-52
2022/09/18 03:24:42;;;;;;;6.03;1.40;;;10.00;99.90;;;;;;4999181;28;20223;-51
2022/09/18 03:27:10;;;;;;;7.33;1.30;;;10.00;99.90;;;;;;4976241;28;20247;-52
2022/09/18 03:29:38;;;;;;;6.27;1.33;;;10.00;99.90;;;;;;4989513;28;20237;-50
2022/09/18 03:32:06;;;;;;;7.23;1.47;;;10.00;99.90;;;;;;5016206;28;20602;-48
2022/09/18 03:34:43;;;;;;;7.20;1.37;;;10.00;99.90;;;;;;5015023;28;20266;-51
2022/09/18 03:37:12;;;;;;;8.13;1.57;;;10.00;99.90;;;;;;5015454;28;20720;-51
2022/09/18 03:39:40;;;;;;;7.53;1.60;;;10.10;99.90;;;;;;5015631;28;20600;-49
2022/09/18 03:42:13;;;;;;;8.10;1.40;;;10.10;99.90;;;;;;4999909;28;20230;-48
2022/09/18 03:44:41;;;;;;;5.57;1.47;;;10.00;99.90;;;;;;5004490;28;20226;-48
2022/09/18 03:47:18;;;;;;;7.40;1.47;;;10.10;99.90;;;;;;4995537;28;20318;-47
2022/09/18 03:49:49;;;;;;;7.13;1.17;;;10.00;99.90;;;;;;5002901;28;20243;-48
2022/09/18 03:52:17;;;;;;;6.27;1.30;;;10.00;99.90;;;;;;5015391;28;20233;-48
2022/09/18 03:54:53;;;;;;;5.13;1.30;;;9.90;99.90;;;;;;4995329;28;20256;-48
2022/09/18 03:57:41;;;;;;;10.27;1.60;;;9.90;99.90;;;;;;4996599;28;20717;-47
2022/09/18 04:00:42;;;;;;;5.60;1.37;;;9.90;99.90;;;;;;4984270;28;20238;-48
2022/09/18 04:03:18;;;;;;;7.73;1.80;;;9.80;99.90;;;;;;4995381;28;20308;-49
2022/09/18 04:06:07;;;;;;;7.07;1.37;;;9.90;99.90;;;;;;4996689;28;20244;-49
2022/09/18 04:09:04;;;;;;;9.70;1.80;;;9.90;99.90;;;;;;4943861;28;20228;-50
2022/09/18 04:11:39;;;;;;;4.87;1.43;;;9.90;99.90;;;;;;5002859;28;20225;-50
2022/09/18 04:14:08;;;;;;;6.67;1.50;;;9.90;99.90;;;;;;5002911;28;20581;-47
2022/09/18 04:16:36;;;;;;;8.80;1.57;;;9.80;99.90;;;;;;4994879;28;20324;-47
2022/09/18 04:19:04;;;;;;;7.90;1.70;;;9.80;99.90;;;;;;5002865;28;20230;-48
2022/09/18 04:21:33;;;;;;;6.90;1.80;;;9.80;99.90;;;;;;5015538;28;20217;-48
2022/09/18 04:24:02;;;;;;;6.70;1.50;;;9.80;99.90;;;;;;5005259;28;20223;-47
2022/09/18 04:26:30;;;;;;;7.47;1.97;;;9.80;99.90;;;;;;4993991;28;20218;-49
2022/09/18 04:29:00;;;;;;;6.33;1.20;;;9.80;99.90;;;;;;4994814;28;20724;-48
2022/09/18 04:31:29;;;;;;;9.83;1.60;;;9.80;99.90;;;;;;4994178;28;20648;-48
2022/09/18 04:34:01;;;;;;;11.63;1.67;;;9.70;99.90;;;;;;4994793;28;20230;-47
2022/09/18 04:36:29;;;;;;;6.97;2.00;;;9.70;99.90;;;;;;4996405;28;20234;-49
2022/09/18 04:38:59;;;;;;;5.97;1.50;;;9.70;99.90;;;;;;4996748;28;20229;-48
2022/09/18 04:41:27;;;;;;;7.10;1.47;;;9.70;99.90;;;;;;5003690;28;20250;-48
2022/09/18 04:43:56;;;;;;;6.93;1.40;;;9.80;99.90;;;;;;5007292;28;20287;-48
2022/09/18 04:46:25;;;;;;;7.47;1.17;;;9.80;99.90;;;;;;4994381;28;20222;-47
2022/09/18 04:48:53;;;;;;;6.60;1.60;;;9.80;99.90;;;;;;4994578;28;20222;-47
2022/09/18 04:51:25;;;;;;;8.73;1.73;;;9.80;99.90;;;;;;4994227;28;20597;-48
2022/09/18 04:53:53;;;;;;;8.60;1.50;;;9.80;99.90;;;;;;4994253;28;20232;-47
2022/09/18 04:56:24;;;;;;;9.13;1.60;;;9.70;99.90;;;;;;4994181;28;20273;-48
2022/09/18 04:58:53;;;;;;;7.10;1.40;;;9.70;99.90;;;;;;4994413;28;20230;-48
2022/09/18 05:01:22;;;;;;;7.77;1.63;;;9.80;99.90;;;;;;4993858;28;20610;-47
2022/09/18 05:03:50;;;;;;;7.07;1.30;;;9.70;99.90;;;;;;5006825;28;20235;-49
2022/09/18 05:06:26;;;;;;;6.97;1.33;;;9.70;99.90;;;;;;5004401;28;20219;-49
2022/09/18 05:08:54;;;;;;;8.47;1.60;;;9.70;99.90;;;;;;4994010;28;20568;-47
2022/09/18 05:11:26;;;;;;;11.07;1.60;;;9.70;99.90;;;;;;5002040;28;20221;-49
2022/09/18 05:13:55;;;;;;;7.27;1.43;;;9.60;99.90;;;;;;5004108;28;20281;-48
2022/09/18 05:16:26;;;;;;;5.53;1.33;;;9.60;99.90;;;;;;4993740;28;20767;-49
2022/09/18 05:19:12;;;;;;;7.87;1.40;;;9.60;99.90;;;;;;4994502;28;20758;-48
2022/09/18 05:21:40;;;;;;;7.80;1.40;;;9.50;99.90;;;;;;4993936;28;20231;-50
2022/09/18 05:24:12;;;;;;;4.87;1.30;;;9.50;99.90;;;;;;4993791;28;20662;-48
2022/09/18 05:26:41;;;;;;;5.53;1.10;;;9.50;99.90;;;;;;5012034;28;20328;-47
2022/09/18 05:29:09;;;;;;;8.00;1.40;;;9.50;99.90;;;;;;5013573;28;20287;-47
2022/09/18 05:31:40;;;;;;;7.50;1.33;;;9.50;99.90;;;;;;5012974;28;20643;-47
2022/09/18 05:34:09;;;;;;;5.47;1.50;;;9.50;99.90;;;;;;5029564;28;20237;-48
2022/09/18 05:36:37;;;;;;;8.97;1.70;;;9.50;99.90;;;;;;5012549;28;20245;-47
2022/09/18 05:39:05;;;;;;;6.50;1.30;;;9.50;99.90;;;;;;4994533;28;20230;-47
2022/09/18 05:41:34;;;;;;;8.40;1.60;;;9.50;99.90;;;;;;4989812;28;20225;-48
2022/09/18 05:44:05;;;;;;;6.70;2.20;;;9.50;99.90;;;;;;5001406;28;20322;-49
2022/09/18 05:46:33;;;;;;;6.33;1.47;;;9.50;99.90;;;;;;4994694;28;20223;-47
2022/09/18 05:49:05;;;;;;;8.93;1.43;;;9.50;99.90;;;;;;4993543;28;20297;-48
2022/09/18 05:51:33;;;;;;;4.70;1.27;;;9.60;99.90;;;;;;5001413;28;20226;-50
2022/09/18 05:54:02;;;;;;;5.83;1.60;;;9.60;99.90;;;;;;5002707;28;20225;-48
2022/09/18 05:56:42;;;;;;;4.97;1.23;;;9.50;99.90;;;;;;5017660;28;20234;-48
2022/09/18 05:59:13;;;;;;;7.47;1.37;;;9.60;99.90;;;;;;5001601;28;20305;-48
2022/09/18 06:01:43;;;;;;;6.67;1.23;;;9.60;99.90;;;;;;5002739;28;20245;-48
2022/09/18 06:04:33;;;;;;;5.93;1.20;;;9.70;99.90;;;;;;5005014;28;20694;-49
2022/09/18 06:07:05;;;;;;;8.33;1.27;;;9.90;99.90;;;;;;5019413;28;20255;-50
2022/09/18 06:09:33;;;;;;;10.00;1.67;;;10.00;99.90;;;;;;5004532;28;20233;-49
2022/09/18 06:12:02;;;;;;;9.53;1.90;;;10.00;99.90;;;;;;5000804;28;20233;-47
2022/09/18 06:14:35;;;;;;;5.47;1.43;;;9.90;99.90;;;;;;5001018;28;20266;-47
2022/09/18 06:17:03;;;;;;;6.37;1.70;;;9.90;99.90;;;;;;5002939;28;20284;-49
2022/09/18 06:19:34;;;;;;;8.43;1.70;;;9.80;99.90;;;;;;5001813;28;20226;-49
2022/09/18 06:22:02;;;;;;;5.00;1.47;;;9.80;99.90;;;;;;5013573;28;20223;-47
2022/09/18 06:24:32;;;;;;;7.93;1.43;;;9.70;99.90;;;;;;5012154;28;20260;-47
2022/09/18 06:27:06;;;;;;;7.57;1.47;;;9.80;99.90;;;;;;5012138;28;20251;-47
2022/09/18 06:29:36;;;;;;;8.23;1.30;;;9.90;99.90;;;;;;5012532;28;20591;-48
2022/09/18 06:32:25;;;;;;;6.83;1.33;;;10.10;99.90;;;;;;5008742;28;20233;-50
2022/09/18 06:34:54;;;;;;;10.13;1.90;;;10.20;99.90;;;;;;5019786;28;20660;-48
2022/09/18 06:37:24;;;;;;;7.00;1.47;;;10.20;99.90;;;;;;4999111;28;20780;-48
2022/09/18 06:40:03;;;;;;;5.90;1.20;;;10.20;99.90;;;;;;4999028;28;20280;-48
2022/09/18 06:43:02;;;;;;;7.20;1.57;;;10.30;99.90;;;;;;5003575;28;20784;-48
2022/09/18 06:45:52;;;;;;;6.40;1.33;;;10.50;99.90;;;;;;4992439;28;20315;-48
2022/09/18 06:48:23;;;;;;;6.30;1.70;;;10.60;99.90;;;;;;4998137;28;20226;-48
2022/09/18 06:50:53;;;;;;;5.67;1.33;;;10.50;99.90;;;;;;5001709;28;20232;-47
2022/09/18 06:53:24;;;;;;;4.67;1.50;;;10.40;99.90;;;;;;4995125;28;20246;-47
2022/09/18 06:56:01;;;;;;;7.37;1.50;;;10.40;99.90;;;;;;4992426;28;20787;-49
2022/09/18 06:58:32;;;;;;;6.07;1.50;;;10.70;99.90;;;;;;4990917;28;20269;-48
2022/09/18 07:01:02;;;;;;;10.07;2.10;;;10.80;99.90;;;;;;4991382;28;20697;-48
2022/09/18 07:03:38;;;;;;;9.63;1.60;;;10.80;99.90;;;;;;4992054;28;20226;-48
2022/09/18 07:06:18;;;;;;;7.77;1.50;;;10.80;99.90;;;;;;4992152;28;20238;-49
2022/09/18 07:08:49;;;;;;;6.20;1.40;;;10.70;99.90;;;;;;4992132;28;20314;-49
2022/09/18 07:11:39;;;;;;;7.67;1.40;;;10.70;99.90;;;;;;5002871;28;20242;-48
2022/09/18 07:14:08;;;;;;;9.60;1.93;;;10.80;99.90;;;;;;4994045;28;20575;-48
2022/09/18 07:16:38;;;;;;;7.07;1.20;;;10.90;99.90;;;;;;4991746;28;20234;-48
2022/09/18 07:19:06;;;;;;;7.30;1.57;;;11.10;99.90;;;;;;4991326;28;20227;-48
2022/09/18 07:21:37;;;;;;;7.53;1.73;;;11.40;99.90;;;;;;4991860;28;20268;-48
2022/09/18 07:24:05;;;;;;;6.07;1.23;;;11.60;99.90;;;;;;5001099;28;20222;-50
2022/09/18 07:26:34;;;;;;;10.40;2.30;;;12.00;99.90;;;;;;5016237;28;20321;-50
2022/09/18 07:29:04;;;;;;;8.37;1.47;;;12.30;99.90;;;;;;5001065;28;20962;-49
2022/09/18 07:31:38;;;;;;;6.03;1.50;;;12.50;99.90;;;;;;4989319;28;20250;-48
2022/09/18 07:34:08;;;;;;;5.77;1.40;;;12.80;99.90;;;;;;5002791;28;20227;-50
2022/09/18 07:36:37;;;;;;;10.00;1.40;;;13.00;99.90;;;;;;5003011;28;20243;-50
2022/09/18 07:39:05;;;;;;;7.07;1.90;;;13.20;99.90;;;;;;4997052;28;20323;-50
2022/09/18 07:42:11;;;;;;;4.97;1.07;;;13.20;99.90;;;;;;4925656;29;20242;-48
2022/09/18 07:44:46;;;;;;;6.30;1.40;;;13.50;99.90;;;;;;4930185;29;20228;-48
2022/09/18 07:47:16;;;;;;;11.30;1.80;;;13.60;99.90;;;;;;4955303;28;20311;-49
2022/09/18 07:49:45;;;;;;;4.90;1.30;;;13.40;99.90;;;;;;5013801;28;20255;-50
2022/09/18 07:52:13;;;;;;;5.30;1.40;;;13.20;99.90;;;;;;4996677;28;20279;-48
2022/09/18 07:54:47;;;;;;;4.83;1.30;;;12.90;99.90;;;;;;5014650;28;20283;-48
2022/09/18 07:57:45;;;;;;;4.73;1.20;;;13.00;99.90;;;;;;4993906;28;20260;-48
2022/09/18 08:00:33;;;;;;;6.50;1.30;;;13.50;99.90;;;;;;4998692;28;20785;-49
2022/09/18 08:03:04;;;;;;;4.47;1.00;;;13.90;99.90;;;;;;5005964;28;20230;-50
2022/09/18 08:05:53;;;;;;;6.00;1.20;;;14.30;99.90;;;;;;5005685;28;20322;-49
2022/09/18 08:08:22;;;;;;;9.50;1.80;;;14.70;99.90;;;;;;5006639;28;20224;-50
2022/09/18 08:11:02;;;;;;;6.27;1.63;;;15.00;99.90;;;;;;5021178;28;20316;-48
2022/09/18 08:13:44;;;;;;;9.93;1.60;;;14.90;99.90;;;;;;5008330;28;20233;-49
2022/09/18 08:16:29;;;;;;;6.20;1.30;;;14.80;99.90;;;;;;5002451;28;20254;-50
2022/09/18 08:19:09;;;;;;;6.20;1.37;;;14.90;99.90;;;;;;5023002;28;20224;-50
2022/09/18 08:22:04;;;;;;;7.13;1.87;;;15.10;99.90;;;;;;5001504;28;20466;-52
2022/09/18 08:24:33;;;;;;;6.57;1.60;;;15.40;99.90;;;;;;5009488;28;20221;-50
2022/09/18 08:27:03;;;;;;;3.40;1.53;;;15.60;99.90;;;;;;5004547;28;20328;-49
2022/09/18 08:29:33;;;;;;;4.73;1.10;;;15.40;99.90;;;;;;5004633;28;20232;-50
2022/09/18 08:32:05;;;;;;;4.97;1.30;;;15.30;99.90;;;;;;5002805;28;20279;-51
2022/09/18 08:34:39;;;;;;;5.53;1.30;;;15.40;99.90;;;;;;5022655;28;20240;-51
2022/09/18 08:37:07;;;;;;;4.87;1.27;;;15.40;99.90;;;;;;5010891;28;20247;-50
2022/09/18 08:40:14;;;;;;;6.03;1.50;;;15.60;99.90;;;;;;4994916;28;20255;-48
2022/09/18 08:43:05;;;;;;;5.57;1.13;;;16.00;99.90;;;;;;4999223;28;20580;-51
2022/09/18 08:45:45;;;;;;;5.47;1.23;;;16.30;99.90;;;;;;4998679;28;20233;-51
2022/09/18 08:48:18;;;;;;;5.27;1.20;;;16.60;99.90;;;;;;4989939;28;20311;-51
2022/09/18 08:50:56;;;;;;;5.27;1.17;;;17.00;99.90;;;;;;5002576;28;20325;-50
2022/09/18 08:53:29;;;;;;;6.27;1.57;;;17.40;99.90;;;;;;5010686;28;20334;-52
2022/09/18 08:56:21;;;;;;;5.73;1.30;;;17.50;99.90;;;;;;4990147;28;20240;-50
2022/09/18 08:59:16;;;;;;;7.83;1.80;;;17.30;99.90;;;;;;5015239;28;20750;-49
2022/09/18 09:01:55;;;;;;;7.57;1.40;;;16.70;99.90;;;;;;5011395;28;20268;-52
2022/09/18 09:04:27;;;;;;;7.53;1.43;;;16.30;99.90;;;;;;5007362;28;20687;-51
2022/09/18 09:07:08;;;;;;;6.70;1.30;;;16.40;99.90;;;;;;5006389;28;20240;-51
2022/09/18 09:09:54;;;;;;;7.00;1.30;;;16.40;99.90;;;;;;4992336;28;20260;-52
2022/09/18 09:12:37;;;;;;;6.00;1.37;;;16.20;99.90;;;;;;5008830;28;20267;-50
2022/09/18 09:15:24;;;;;;;4.63;1.30;;;16.10;99.90;;;;;;5005087;28;20307;-52
2022/09/18 09:18:08;;;;;;;7.80;1.50;;;16.30;99.90;;;;;;5029767;28;20742;-49
2022/09/18 09:20:45;;;;;;;4.97;1.20;;;16.80;99.90;;;;;;5013142;28;20232;-51
2022/09/18 09:23:22;;;;;;;6.43;1.47;;;16.50;99.90;;;;;;4986395;28;20232;-53
2022/09/18 09:26:02;;;;;;;6.10;1.47;;;15.70;99.90;;;;;;5009436;28;20224;-50
2022/09/18 09:28:59;;;;;;;10.17;2.20;;;14.80;99.90;;;;;;5013221;28;20597;-53
2022/09/18 09:31:52;;;;;;;9.33;2.20;;;13.10;99.90;;;;;;5013631;28;20322;-50
2022/09/18 09:34:39;;;;;;;9.90;1.93;;;12.30;99.90;;;;;;5026602;28;20252;-49
2022/09/18 09:37:38;;;;;;;6.37;1.40;;;12.20;99.90;;;;;;4995090;28;20236;-52
2022/09/18 09:40:15;;;;;;;7.30;1.50;;;12.20;99.90;;;;;;5001559;28;20224;-49
2022/09/18 09:42:50;;;;;;;8.97;1.20;;;12.20;99.90;;;;;;5000942;28;20234;-52
2022/09/18 09:45:26;;;;;;;8.97;1.80;;;12.30;99.90;;;;;;5009655;28;20695;-50
2022/09/18 09:48:03;;;;;;;7.73;1.63;;;12.40;99.90;;;;;;5006261;28;20225;-51
2022/09/18 09:50:45;;;;;;;5.73;1.43;;;12.60;99.90;;;;;;4994243;28;20236;-50
2022/09/18 09:53:13;;;;;;;11.20;1.60;;;12.60;99.90;;;;;;4998453;28;20225;-50
2022/09/18 09:55:52;;;;;;;6.60;1.57;;;12.60;99.90;;;;;;4993899;28;20245;-49
2022/09/18 09:58:34;;;;;;;6.23;1.20;;;12.70;99.90;;;;;;4992938;28;20351;-51
2022/09/18 10:01:10;;;;;;;6.97;1.40;;;13.20;99.90;;;;;;4992484;28;20790;-52
2022/09/18 10:03:53;;;;;;;5.73;1.23;;;13.80;99.90;;;;;;4994092;28;20224;-49
2022/09/18 10:06:38;;;;;;;6.40;1.43;;;14.00;99.90;;;;;;5000606;28;20699;-49
2022/09/18 10:09:15;;;;;;;4.47;1.07;;;14.40;99.90;;;;;;5012401;28;20649;-51
2022/09/18 10:11:53;;;;;;;4.23;1.03;;;14.10;99.90;;;;;;4996570;28;20751;-50
2022/09/18 10:14:27;;;;;;;6.17;1.77;;;13.40;99.90;;;;;;5005927;28;20224;-50
2022/09/18 10:16:56;;;;;;;4.67;1.13;;;12.90;99.90;;;;;;5009326;28;20668;-50
2022/09/18 10:19:33;;;;;;;4.13;0.90;;;12.90;99.90;;;;;;5006842;28;20231;-51
2022/09/18 10:22:06;;;;;;;4.20;0.90;;;13.10;99.90;;;;;;4996227;28;20227;-51
2022/09/18 10:24:45;;;;;;;3.33;0.80;;;13.40;99.90;;;;;;4995930;28;20689;-50
2022/09/18 10:27:17;;;;;;;3.73;0.83;;;13.50;99.90;;;;;;5008888;28;20335;-51
2022/09/18 10:29:46;;;;;;;2.43;0.70;;;13.90;99.90;;;;;;4995929;28;20683;-49
2022/09/18 10:32:33;;;;;;;2.13;0.73;;;14.20;99.90;;;;;;4993225;28;20731;-50
2022/09/18 10:35:43;;;;;;;2.83;0.80;;;14.70;99.90;;;;;;4992347;28;20237;-49
2022/09/18 10:38:32;;;;;;;3.67;0.70;;;15.00;99.90;;;;;;5000475;28;20232;-52
2022/09/18 10:41:30;;;;;;;4.33;0.87;;;15.70;99.90;;;;;;4993485;28;20228;-52
2022/09/18 10:44:05;;;;;;;1.60;0.70;;;16.00;99.90;;;;;;5020904;28;20225;-52
2022/09/18 10:46:39;;;;;;;2.63;0.80;;;15.90;99.90;;;;;;4994042;28;20276;-52
2022/09/18 10:49:19;;;;;;;1.87;0.63;;;16.10;99.90;;;;;;4992497;28;20222;-51
2022/09/18 10:51:47;;;;;;;3.63;0.70;;;16.20;99.90;;;;;;4989672;28;20696;-52
2022/09/18 10:54:21;;;;;;;2.93;1.10;;;16.10;99.90;;;;;;4992211;28;20299;-51
2022/09/18 10:57:25;;;;;;;3.67;0.67;;;15.60;99.90;;;;;;4993724;28;20230;-50
2022/09/18 10:59:55;;;;;;;1.83;0.70;;;14.70;99.90;;;;;;4993190;28;20324;-52
2022/09/18 11:02:27;;;;;;;3.70;0.93;;;13.60;99.90;;;;;;4999842;28;20238;-49
2022/09/18 11:04:56;;;;;;;2.87;1.00;;;13.10;99.90;;;;;;5011452;28;20228;-52
2022/09/18 11:07:29;;;;;;;2.43;0.83;;;13.10;99.90;;;;;;5011632;28;20240;-49
2022/09/18 11:10:06;;;;;;;2.40;0.90;;;12.80;99.90;;;;;;5002440;28;20223;-52
2022/09/18 11:12:34;;;;;;;5.30;1.13;;;12.60;99.90;;;;;;4994971;28;20240;-50
2022/09/18 11:15:07;;;;;;;2.57;0.83;;;12.40;99.90;;;;;;5000848;28;20303;-50
2022/09/18 11:17:46;;;;;;;4.70;1.10;;;12.00;99.90;;;;;;4991785;28;20255;-51
2022/09/18 11:20:23;;;;;;;7.20;1.20;;;11.90;99.90;;;;;;4991935;28;20236;-51
2022/09/18 11:23:22;;;;;;;3.40;0.90;;;11.80;99.90;;;;;;4995259;28;20866;-50
2022/09/18 11:26:15;;;;;;;3.87;0.70;;;11.80;99.90;;;;;;4991213;28;20256;-53
2022/09/18 11:28:57;;;;;;;2.80;0.67;;;12.00;99.90;;;;;;4993278;28;20228;-51
2022/09/18 11:31:38;;;;;;;2.87;0.67;;;12.60;99.90;;;;;;4992641;28;20232;-49
2022/09/18 11:34:17;;;;;;;3.23;0.73;;;12.80;99.90;;;;;;4994853;28;20763;-51
2022/09/18 11:36:49;;;;;;;3.87;0.77;;;12.90;99.90;;;;;;5015048;28;20266;-49
2022/09/18 11:39:23;;;;;;;3.10;0.73;;;12.80;99.90;;;;;;5010863;28;20244;-52
2022/09/18 11:41:54;;;;;;;4.13;0.83;;;12.90;99.90;;;;;;5006901;28;20224;-50
2022/09/18 11:44:26;;;;;;;3.07;0.80;;;13.00;99.90;;;;;;5003515;28;20279;-51
2022/09/18 11:47:22;;;;;;;2.87;1.23;;;13.30;99.90;;;;;;4995491;28;20229;-50
2022/09/18 11:49:55;;;;;;;3.03;0.90;;;13.60;99.90;;;;;;4997706;28;20308;-52
2022/09/18 11:52:29;;;;;;;3.40;1.20;;;13.80;99.90;;;;;;4996475;28;20224;-52
2022/09/18 11:55:06;;;;;;;5.07;1.47;;;13.90;99.90;;;;;;4995345;28;20280;-51
2022/09/18 11:57:37;;;;;;;6.47;1.10;;;14.00;99.90;;;;;;4996382;28;20225;-52
2022/09/18 12:00:13;;;;;;;4.70;1.10;;;14.10;99.90;;;;;;4995173;28;20239;-51
2022/09/18 12:02:48;;;;;;;4.30;1.10;;;14.10;99.90;;;;;;4995947;28;20267;-50
2022/09/18 12:05:23;;;;;;;5.50;1.53;;;14.10;99.90;;;;;;4997814;28;20229;-52
2022/09/18 12:07:59;;;;;;;4.27;1.20;;;14.20;99.90;;;;;;4995110;28;20232;-49
2022/09/18 12:10:38;;;;;;;4.87;1.10;;;14.30;99.90;;;;;;5000877;28;20224;-53
2022/09/18 12:13:25;;;;;;;7.10;1.63;;;14.00;99.90;;;;;;5001620;28;20220;-50
2022/09/18 12:15:59;;;;;;;6.60;1.27;;;13.50;99.90;;;;;;4996891;28;20339;-50
2022/09/18 12:18:33;;;;;;;4.93;1.30;;;13.30;99.90;;;;;;4994648;28;20707;-52
2022/09/18 12:21:10;;;;;;;4.97;1.30;;;13.10;99.90;;;;;;4994775;28;20403;-51
2022/09/18 12:23:38;;;;;;;6.90;1.27;;;12.80;99.90;;;;;;5010949;28;20766;-52
2022/09/18 12:26:17;;;;;;;5.50;1.30;;;12.30;99.90;;;;;;4994660;28;20229;-51
2022/09/18 12:29:02;;;;;;;4.50;1.03;;;12.10;99.90;;;;;;5011006;28;20231;-51
2022/09/18 12:31:39;;;;;;;6.27;1.00;;;12.00;99.90;;;;;;4995435;28;20605;-50
2022/09/18 12:34:19;;;;;;;6.67;1.13;;;11.90;99.90;;;;;;5011047;28;20235;-49
2022/09/18 12:37:18;;;;;;;7.07;1.20;;;12.00;99.90;;;;;;5015583;28;20611;-49
2022/09/18 12:40:14;;;;;;;7.83;1.50;;;12.10;99.90;;;;;;5007405;28;20291;-50
2022/09/18 12:42:55;;;;;;;6.20;1.00;;;12.20;99.90;;;;;;5010656;28;20327;-52
2022/09/18 12:45:53;;;;;;;6.43;1.40;;;12.30;99.90;;;;;;5003138;28;20230;-52
2022/09/18 12:48:46;;;;;;;5.07;1.20;;;12.30;99.90;;;;;;5014958;28;20237;-51
2022/09/18 12:51:29;;;;;;;5.87;1.33;;;12.40;99.90;;;;;;5015196;28;20232;-50
2022/09/18 12:54:09;;;;;;;3.33;0.90;;;12.40;99.90;;;;;;5015496;28;20228;-52
2022/09/18 12:56:52;;;;;;;5.37;1.80;;;12.30;99.90;;;;;;5015072;28;20235;-50
2022/09/18 12:59:33;;;;;;;3.27;0.90;;;12.30;99.90;;;;;;5014252;28;20231;-50
2022/09/18 13:02:14;;;;;;;4.93;1.20;;;12.20;99.90;;;;;;5014715;28;20242;-50
2022/09/18 13:04:47;;;;;;;2.67;0.80;;;12.10;99.90;;;;;;5014811;28;20593;-50
2022/09/18 13:07:21;;;;;;;3.93;0.70;;;12.00;99.90;;;;;;5014929;28;20748;-51
2022/09/18 13:09:55;;;;;;;3.90;0.90;;;12.20;99.90;;;;;;5006963;28;20683;-51
2022/09/18 13:12:30;;;;;;;2.83;0.90;;;12.30;99.90;;;;;;5001108;28;20614;-52
2022/09/18 13:15:04;;;;;;;4.50;0.93;;;12.50;99.90;;;;;;5014196;28;20233;-51
2022/09/18 13:17:36;;;;;;;1.93;0.60;;;12.50;99.90;;;;;;5014715;28;20234;-51
2022/09/18 13:20:13;;;;;;;4.63;1.10;;;12.50;99.90;;;;;;5014432;28;20245;-50
2022/09/18 13:22:45;;;;;;;4.57;1.17;;;12.60;99.90;;;;;;5014658;28;20234;-49
2022/09/18 13:25:25;;;;;;;6.43;1.70;;;12.60;99.90;;;;;;5014157;28;20251;-53
2022/09/18 13:27:54;;;;;;;6.97;1.03;;;12.60;99.90;;;;;;5014144;28;20314;-51
2022/09/18 13:30:25;;;;;;;3.93;1.20;;;12.70;99.90;;;;;;5014153;28;20231;-49
2022/09/18 13:32:55;;;;;;;7.07;1.30;;;12.70;99.90;;;;;;5014462;28;20235;-53